sensor_id;sensor_type;location;lat;lon;timestamp;P1;durP1;ratioP1;P2;durP2;ratioP2
1296;SDS011;641;48.492;9.184;2023-06-10T00:01:50;14.60;;;9.57;;
1296;SDS011;641;48.492;9.184;2023-06-10T00:04:20;14.43;;;8.50;;
1296;SDS011;641;48.492;9.184;2023-06-10T00:06:46;12.73;;;8.10;;
1296;SDS011;641;48.492;9.184;2023-06-10T00:09:13;12.67;;;8.73;;
1296;SDS011;641;48.492;9.184;2023-06-10T00:11:39;12.60;;;8.63;;
1296;SDS011;641;48.492;9.184;2023-06-10T00:14:05;12.13;;;7.97;;
1296;SDS011;641;48.492;9.184;2023-06-10T00:16:31;11.80;;;7.30;;
1296;SDS011;641;48.492;9.184;2023-06-10T00:18:58;13.33;;;7.90;;
1296;SDS011;641;48.492;9.184;2023-06-10T00:21:28;12.90;;;7.93;;
1296;SDS011;641;48.492;9.184;2023-06-10T00:23:55;16.50;;;8.40;;
1296;SDS011;641;48.492;9.184;2023-06-10T00:26:24;12.70;;;7.67;;
1296;SDS011;641;48.492;9.184;2023-06-10T00:28:51;13.20;;;8.13;;
1296;SDS011;641;48.492;9.184;2023-06-10T00:31:17;13.40;;;8.10;;
1296;SDS011;641;48.492;9.184;2023-06-10T00:33:43;14.20;;;8.93;;
1296;SDS011;641;48.492;9.184;2023-06-10T00:36:08;12.20;;;8.17;;
1296;SDS011;641;48.492;9.184;2023-06-10T00:38:34;15.70;;;9.17;;
1296;SDS011;641;48.492;9.184;2023-06-10T00:40:59;13.63;;;8.70;;
1296;SDS011;641;48.492;9.184;2023-06-10T00:43:25;12.93;;;8.00;;
1296;SDS011;641;48.492;9.184;2023-06-10T00:45:51;13.37;;;8.47;;
1296;SDS011;641;48.492;9.184;2023-06-10T00:48:17;13.90;;;8.83;;
1296;SDS011;641;48.492;9.184;2023-06-10T00:50:43;15.07;;;8.67;;
1296;SDS011;641;48.492;9.184;2023-06-10T00:53:10;13.93;;;8.80;;
1296;SDS011;641;48.492;9.184;2023-06-10T00:55:37;13.37;;;8.73;;
1296;SDS011;641;48.492;9.184;2023-06-10T00:58:03;14.30;;;8.00;;
1296;SDS011;641;48.492;9.184;2023-06-10T01:00:29;14.00;;;7.60;;
1296;SDS011;641;48.492;9.184;2023-06-10T01:02:54;12.90;;;7.87;;
1296;SDS011;641;48.492;9.184;2023-06-10T01:05:20;16.33;;;9.10;;
1296;SDS011;641;48.492;9.184;2023-06-10T01:10:42;12.47;;;7.87;;
1296;SDS011;641;48.492;9.184;2023-06-10T01:13:16;14.40;;;8.20;;
1296;SDS011;641;48.492;9.184;2023-06-10T01:15:43;14.10;;;9.73;;
1296;SDS011;641;48.492;9.184;2023-06-10T01:18:09;13.87;;;8.60;;
1296;SDS011;641;48.492;9.184;2023-06-10T01:20:40;13.83;;;8.70;;
1296;SDS011;641;48.492;9.184;2023-06-10T01:23:08;11.93;;;8.20;;
1296;SDS011;641;48.492;9.184;2023-06-10T01:25:38;13.90;;;8.97;;
1296;SDS011;641;48.492;9.184;2023-06-10T01:28:14;15.93;;;9.27;;
1296;SDS011;641;48.492;9.184;2023-06-10T01:30:46;14.13;;;8.50;;
1296;SDS011;641;48.492;9.184;2023-06-10T01:33:25;15.27;;;9.50;;
1296;SDS011;641;48.492;9.184;2023-06-10T01:35:53;16.73;;;8.50;;
1296;SDS011;641;48.492;9.184;2023-06-10T01:38:22;13.70;;;8.50;;
1296;SDS011;641;48.492;9.184;2023-06-10T01:40:49;13.63;;;8.70;;
1296;SDS011;641;48.492;9.184;2023-06-10T01:43:15;16.40;;;9.03;;
1296;SDS011;641;48.492;9.184;2023-06-10T01:45:41;13.93;;;8.90;;
1296;SDS011;641;48.492;9.184;2023-06-10T01:48:06;15.40;;;8.90;;
1296;SDS011;641;48.492;9.184;2023-06-10T01:50:32;13.13;;;8.60;;
1296;SDS011;641;48.492;9.184;2023-06-10T01:52:58;18.23;;;9.60;;
1296;SDS011;641;48.492;9.184;2023-06-10T01:55:24;14.33;;;9.50;;
1296;SDS011;641;48.492;9.184;2023-06-10T01:57:50;17.40;;;8.87;;
1296;SDS011;641;48.492;9.184;2023-06-10T02:00:16;15.77;;;9.40;;
1296;SDS011;641;48.492;9.184;2023-06-10T02:02:42;16.23;;;9.30;;
1296;SDS011;641;48.492;9.184;2023-06-10T02:05:08;13.30;;;8.53;;
1296;SDS011;641;48.492;9.184;2023-06-10T02:07:33;13.10;;;8.90;;
1296;SDS011;641;48.492;9.184;2023-06-10T02:09:59;15.17;;;10.93;;
1296;SDS011;641;48.492;9.184;2023-06-10T02:12:24;14.13;;;9.40;;
1296;SDS011;641;48.492;9.184;2023-06-10T02:14:50;15.37;;;8.40;;
1296;SDS011;641;48.492;9.184;2023-06-10T02:17:16;12.67;;;8.40;;
1296;SDS011;641;48.492;9.184;2023-06-10T02:19:41;15.00;;;9.47;;
1296;SDS011;641;48.492;9.184;2023-06-10T02:22:08;13.10;;;9.20;;
1296;SDS011;641;48.492;9.184;2023-06-10T02:24:35;14.17;;;9.50;;
1296;SDS011;641;48.492;9.184;2023-06-10T02:27:02;14.73;;;8.63;;
1296;SDS011;641;48.492;9.184;2023-06-10T02:29:31;13.90;;;8.97;;
1296;SDS011;641;48.492;9.184;2023-06-10T02:31:58;13.43;;;8.70;;
1296;SDS011;641;48.492;9.184;2023-06-10T02:34:24;13.40;;;9.17;;
1296;SDS011;641;48.492;9.184;2023-06-10T02:36:49;14.43;;;9.03;;
1296;SDS011;641;48.492;9.184;2023-06-10T02:39:16;14.93;;;8.90;;
1296;SDS011;641;48.492;9.184;2023-06-10T02:41:41;15.43;;;9.43;;
1296;SDS011;641;48.492;9.184;2023-06-10T02:44:07;12.67;;;9.10;;
1296;SDS011;641;48.492;9.184;2023-06-10T02:46:32;14.67;;;9.70;;
1296;SDS011;641;48.492;9.184;2023-06-10T02:48:58;13.53;;;9.13;;
1296;SDS011;641;48.492;9.184;2023-06-10T02:51:23;16.43;;;9.17;;
1296;SDS011;641;48.492;9.184;2023-06-10T02:53:49;14.60;;;9.10;;
1296;SDS011;641;48.492;9.184;2023-06-10T02:56:16;17.10;;;9.80;;
1296;SDS011;641;48.492;9.184;2023-06-10T02:58:41;16.93;;;9.37;;
1296;SDS011;641;48.492;9.184;2023-06-10T03:01:07;13.47;;;8.33;;
1296;SDS011;641;48.492;9.184;2023-06-10T03:03:34;12.70;;;8.80;;
1296;SDS011;641;48.492;9.184;2023-06-10T03:06:01;13.30;;;8.73;;
1296;SDS011;641;48.492;9.184;2023-06-10T03:08:27;14.93;;;9.33;;
1296;SDS011;641;48.492;9.184;2023-06-10T03:10:53;13.40;;;8.80;;
1296;SDS011;641;48.492;9.184;2023-06-10T03:13:19;14.70;;;9.30;;
1296;SDS011;641;48.492;9.184;2023-06-10T03:15:44;14.90;;;9.50;;
1296;SDS011;641;48.492;9.184;2023-06-10T03:18:11;12.70;;;8.57;;
1296;SDS011;641;48.492;9.184;2023-06-10T03:20:36;13.70;;;8.87;;
1296;SDS011;641;48.492;9.184;2023-06-10T03:23:03;13.30;;;8.80;;
1296;SDS011;641;48.492;9.184;2023-06-10T03:25:31;13.50;;;9.50;;
1296;SDS011;641;48.492;9.184;2023-06-10T03:27:57;13.17;;;8.50;;
1296;SDS011;641;48.492;9.184;2023-06-10T03:30:22;12.97;;;8.33;;
1296;SDS011;641;48.492;9.184;2023-06-10T03:32:48;14.53;;;9.60;;
1296;SDS011;641;48.492;9.184;2023-06-10T03:35:14;14.40;;;7.90;;
1296;SDS011;641;48.492;9.184;2023-06-10T03:37:40;13.33;;;8.43;;
1296;SDS011;641;48.492;9.184;2023-06-10T03:40:06;14.27;;;8.47;;
1296;SDS011;641;48.492;9.184;2023-06-10T03:42:33;15.47;;;8.60;;
1296;SDS011;641;48.492;9.184;2023-06-10T03:44:59;13.77;;;8.90;;
1296;SDS011;641;48.492;9.184;2023-06-10T03:47:25;13.30;;;9.13;;
1296;SDS011;641;48.492;9.184;2023-06-10T03:49:50;14.00;;;9.20;;
1296;SDS011;641;48.492;9.184;2023-06-10T03:52:17;12.80;;;8.00;;
1296;SDS011;641;48.492;9.184;2023-06-10T03:54:42;14.97;;;9.10;;
1296;SDS011;641;48.492;9.184;2023-06-10T03:57:08;12.67;;;8.30;;
1296;SDS011;641;48.492;9.184;2023-06-10T03:59:33;15.77;;;9.00;;
1296;SDS011;641;48.492;9.184;2023-06-10T04:01:59;14.10;;;9.00;;
1296;SDS011;641;48.492;9.184;2023-06-10T04:04:25;15.73;;;9.90;;
1296;SDS011;641;48.492;9.184;2023-06-10T04:06:51;15.07;;;10.00;;
1296;SDS011;641;48.492;9.184;2023-06-10T04:09:16;17.63;;;9.33;;
1296;SDS011;641;48.492;9.184;2023-06-10T04:11:42;13.93;;;9.30;;
1296;SDS011;641;48.492;9.184;2023-06-10T04:14:07;13.33;;;9.10;;
1296;SDS011;641;48.492;9.184;2023-06-10T04:16:33;12.87;;;8.70;;
1296;SDS011;641;48.492;9.184;2023-06-10T04:18:59;13.90;;;8.90;;
1296;SDS011;641;48.492;9.184;2023-06-10T04:21:25;13.23;;;9.07;;
1296;SDS011;641;48.492;9.184;2023-06-10T04:23:51;15.80;;;9.67;;
1296;SDS011;641;48.492;9.184;2023-06-10T04:26:17;13.70;;;9.10;;
1296;SDS011;641;48.492;9.184;2023-06-10T04:28:43;12.27;;;8.07;;
1296;SDS011;641;48.492;9.184;2023-06-10T04:31:08;13.40;;;9.53;;
1296;SDS011;641;48.492;9.184;2023-06-10T04:33:34;13.20;;;8.50;;
1296;SDS011;641;48.492;9.184;2023-06-10T04:36:01;13.87;;;9.37;;
1296;SDS011;641;48.492;9.184;2023-06-10T04:38:26;13.60;;;9.00;;
1296;SDS011;641;48.492;9.184;2023-06-10T04:40:52;14.80;;;10.10;;
1296;SDS011;641;48.492;9.184;2023-06-10T04:43:17;14.97;;;9.23;;
1296;SDS011;641;48.492;9.184;2023-06-10T04:45:43;16.30;;;9.50;;
1296;SDS011;641;48.492;9.184;2023-06-10T04:48:09;14.63;;;9.10;;
1296;SDS011;641;48.492;9.184;2023-06-10T04:50:36;13.17;;;8.53;;
1296;SDS011;641;48.492;9.184;2023-06-10T04:53:02;14.77;;;9.77;;
1296;SDS011;641;48.492;9.184;2023-06-10T04:55:27;13.40;;;9.20;;
1296;SDS011;641;48.492;9.184;2023-06-10T04:57:53;14.40;;;9.30;;
1296;SDS011;641;48.492;9.184;2023-06-10T05:00:18;14.43;;;10.40;;
1296;SDS011;641;48.492;9.184;2023-06-10T05:02:44;15.83;;;9.80;;
1296;SDS011;641;48.492;9.184;2023-06-10T05:05:10;14.20;;;9.10;;
1296;SDS011;641;48.492;9.184;2023-06-10T05:07:35;18.40;;;10.70;;
1296;SDS011;641;48.492;9.184;2023-06-10T05:10:01;14.80;;;10.57;;
1296;SDS011;641;48.492;9.184;2023-06-10T05:12:28;14.80;;;9.83;;
1296;SDS011;641;48.492;9.184;2023-06-10T05:14:53;18.03;;;10.70;;
1296;SDS011;641;48.492;9.184;2023-06-10T05:17:20;17.00;;;9.97;;
1296;SDS011;641;48.492;9.184;2023-06-10T05:19:45;18.03;;;11.80;;
1296;SDS011;641;48.492;9.184;2023-06-10T05:22:12;13.00;;;9.50;;
1296;SDS011;641;48.492;9.184;2023-06-10T05:24:38;16.67;;;10.00;;
1296;SDS011;641;48.492;9.184;2023-06-10T05:27:04;13.90;;;9.90;;
1296;SDS011;641;48.492;9.184;2023-06-10T05:29:31;15.60;;;10.40;;
1296;SDS011;641;48.492;9.184;2023-06-10T05:31:57;16.50;;;10.50;;
1296;SDS011;641;48.492;9.184;2023-06-10T05:34:25;15.53;;;10.40;;
1296;SDS011;641;48.492;9.184;2023-06-10T05:36:50;14.10;;;9.40;;
1296;SDS011;641;48.492;9.184;2023-06-10T05:39:16;13.63;;;9.53;;
1296;SDS011;641;48.492;9.184;2023-06-10T05:41:42;15.10;;;10.07;;
1296;SDS011;641;48.492;9.184;2023-06-10T05:44:07;15.73;;;9.50;;
1296;SDS011;641;48.492;9.184;2023-06-10T05:46:33;15.00;;;10.43;;
1296;SDS011;641;48.492;9.184;2023-06-10T05:48:58;14.50;;;9.67;;
1296;SDS011;641;48.492;9.184;2023-06-10T05:51:24;16.33;;;9.60;;
1296;SDS011;641;48.492;9.184;2023-06-10T05:53:50;15.67;;;9.80;;
1296;SDS011;641;48.492;9.184;2023-06-10T05:56:16;13.87;;;8.83;;
1296;SDS011;641;48.492;9.184;2023-06-10T05:58:41;15.20;;;9.90;;
1296;SDS011;641;48.492;9.184;2023-06-10T06:01:07;17.30;;;9.90;;
1296;SDS011;641;48.492;9.184;2023-06-10T06:03:32;13.20;;;9.27;;
1296;SDS011;641;48.492;9.184;2023-06-10T06:05:58;14.70;;;10.80;;
1296;SDS011;641;48.492;9.184;2023-06-10T06:08:23;16.07;;;10.13;;
1296;SDS011;641;48.492;9.184;2023-06-10T06:10:49;15.97;;;10.43;;
1296;SDS011;641;48.492;9.184;2023-06-10T06:13:15;17.33;;;10.97;;
1296;SDS011;641;48.492;9.184;2023-06-10T06:15:40;15.57;;;11.27;;
1296;SDS011;641;48.492;9.184;2023-06-10T06:18:06;16.40;;;10.00;;
1296;SDS011;641;48.492;9.184;2023-06-10T06:20:32;16.67;;;11.10;;
1296;SDS011;641;48.492;9.184;2023-06-10T06:22:57;15.63;;;10.77;;
1296;SDS011;641;48.492;9.184;2023-06-10T06:25:23;17.60;;;10.40;;
1296;SDS011;641;48.492;9.184;2023-06-10T06:27:48;17.23;;;9.87;;
1296;SDS011;641;48.492;9.184;2023-06-10T06:30:14;15.10;;;9.70;;
1296;SDS011;641;48.492;9.184;2023-06-10T06:32:40;14.57;;;10.33;;
1296;SDS011;641;48.492;9.184;2023-06-10T06:35:06;17.67;;;9.80;;
1296;SDS011;641;48.492;9.184;2023-06-10T06:37:33;14.40;;;10.37;;
1296;SDS011;641;48.492;9.184;2023-06-10T06:39:59;14.53;;;10.23;;
1296;SDS011;641;48.492;9.184;2023-06-10T06:42:25;15.07;;;9.90;;
1296;SDS011;641;48.492;9.184;2023-06-10T06:44:51;15.93;;;9.30;;
1296;SDS011;641;48.492;9.184;2023-06-10T06:47:16;14.00;;;9.97;;
1296;SDS011;641;48.492;9.184;2023-06-10T06:49:45;13.80;;;9.87;;
1296;SDS011;641;48.492;9.184;2023-06-10T06:52:11;14.00;;;9.63;;
1296;SDS011;641;48.492;9.184;2023-06-10T06:54:37;17.30;;;8.20;;
1296;SDS011;641;48.492;9.184;2023-06-10T06:57:03;14.50;;;9.20;;
1296;SDS011;641;48.492;9.184;2023-06-10T06:59:28;19.43;;;9.67;;
1296;SDS011;641;48.492;9.184;2023-06-10T07:01:54;14.07;;;8.40;;
1296;SDS011;641;48.492;9.184;2023-06-10T07:04:20;14.27;;;8.70;;
1296;SDS011;641;48.492;9.184;2023-06-10T07:06:48;14.80;;;8.63;;
1296;SDS011;641;48.492;9.184;2023-06-10T07:09:14;12.13;;;7.43;;
1296;SDS011;641;48.492;9.184;2023-06-10T07:11:39;14.40;;;8.80;;
1296;SDS011;641;48.492;9.184;2023-06-10T07:14:06;12.80;;;8.00;;
1296;SDS011;641;48.492;9.184;2023-06-10T07:16:32;12.47;;;7.63;;
1296;SDS011;641;48.492;9.184;2023-06-10T07:18:57;12.13;;;7.07;;
1296;SDS011;641;48.492;9.184;2023-06-10T07:21:23;14.40;;;8.10;;
1296;SDS011;641;48.492;9.184;2023-06-10T07:23:49;13.67;;;8.03;;
1296;SDS011;641;48.492;9.184;2023-06-10T07:26:17;12.30;;;7.73;;
1296;SDS011;641;48.492;9.184;2023-06-10T07:28:43;12.90;;;8.27;;
1296;SDS011;641;48.492;9.184;2023-06-10T07:31:08;11.97;;;7.20;;
1296;SDS011;641;48.492;9.184;2023-06-10T07:33:34;12.00;;;7.97;;
1296;SDS011;641;48.492;9.184;2023-06-10T07:36:00;12.90;;;8.43;;
1296;SDS011;641;48.492;9.184;2023-06-10T07:38:25;11.80;;;6.93;;
1296;SDS011;641;48.492;9.184;2023-06-10T07:40:51;13.30;;;7.60;;
1296;SDS011;641;48.492;9.184;2023-06-10T07:43:17;11.60;;;7.37;;
1296;SDS011;641;48.492;9.184;2023-06-10T07:45:43;12.03;;;7.70;;
1296;SDS011;641;48.492;9.184;2023-06-10T07:48:09;12.50;;;7.63;;
1296;SDS011;641;48.492;9.184;2023-06-10T07:50:35;13.80;;;8.80;;
1296;SDS011;641;48.492;9.184;2023-06-10T07:53:00;11.90;;;7.37;;
1296;SDS011;641;48.492;9.184;2023-06-10T07:55:26;12.00;;;6.90;;
1296;SDS011;641;48.492;9.184;2023-06-10T07:57:52;12.20;;;7.90;;
1296;SDS011;641;48.492;9.184;2023-06-10T08:00:18;12.90;;;8.47;;
1296;SDS011;641;48.492;9.184;2023-06-10T08:02:44;12.70;;;8.50;;
1296;SDS011;641;48.492;9.184;2023-06-10T08:05:10;12.37;;;7.83;;
1296;SDS011;641;48.492;9.184;2023-06-10T08:07:35;11.90;;;7.43;;
1296;SDS011;641;48.492;9.184;2023-06-10T08:10:01;11.60;;;6.30;;
1296;SDS011;641;48.492;9.184;2023-06-10T08:12:27;13.90;;;7.50;;
1296;SDS011;641;48.492;9.184;2023-06-10T08:14:53;18.30;;;7.50;;
1296;SDS011;641;48.492;9.184;2023-06-10T08:17:20;10.77;;;7.03;;
1296;SDS011;641;48.492;9.184;2023-06-10T08:19:45;12.67;;;7.10;;
1296;SDS011;641;48.492;9.184;2023-06-10T08:22:11;12.17;;;7.00;;
1296;SDS011;641;48.492;9.184;2023-06-10T08:24:37;10.03;;;5.97;;
1296;SDS011;641;48.492;9.184;2023-06-10T08:27:02;12.40;;;7.20;;
1296;SDS011;641;48.492;9.184;2023-06-10T08:29:28;11.50;;;7.27;;
1296;SDS011;641;48.492;9.184;2023-06-10T08:31:56;12.07;;;6.73;;
1296;SDS011;641;48.492;9.184;2023-06-10T08:34:21;11.53;;;6.93;;
1296;SDS011;641;48.492;9.184;2023-06-10T08:36:47;11.37;;;6.90;;
1296;SDS011;641;48.492;9.184;2023-06-10T08:39:17;12.87;;;8.23;;
1296;SDS011;641;48.492;9.184;2023-06-10T08:41:43;11.00;;;6.70;;
1296;SDS011;641;48.492;9.184;2023-06-10T08:44:16;11.90;;;6.80;;
1296;SDS011;641;48.492;9.184;2023-06-10T08:46:47;11.00;;;6.30;;
1296;SDS011;641;48.492;9.184;2023-06-10T08:49:16;11.03;;;6.90;;
1296;SDS011;641;48.492;9.184;2023-06-10T08:51:43;11.07;;;6.30;;
1296;SDS011;641;48.492;9.184;2023-06-10T08:54:17;11.23;;;5.93;;
1296;SDS011;641;48.492;9.184;2023-06-10T08:56:47;12.90;;;7.40;;
1296;SDS011;641;48.492;9.184;2023-06-10T08:59:16;13.73;;;6.63;;
1296;SDS011;641;48.492;9.184;2023-06-10T09:01:42;11.23;;;6.20;;
1296;SDS011;641;48.492;9.184;2023-06-10T09:04:09;12.70;;;6.40;;
1296;SDS011;641;48.492;9.184;2023-06-10T09:06:35;11.63;;;6.77;;
1296;SDS011;641;48.492;9.184;2023-06-10T09:09:01;11.37;;;6.97;;
1296;SDS011;641;48.492;9.184;2023-06-10T09:11:27;11.47;;;5.83;;
1296;SDS011;641;48.492;9.184;2023-06-10T09:13:53;10.80;;;6.40;;
1296;SDS011;641;48.492;9.184;2023-06-10T09:16:19;10.27;;;5.70;;
1296;SDS011;641;48.492;9.184;2023-06-10T09:18:44;13.57;;;5.83;;
1296;SDS011;641;48.492;9.184;2023-06-10T09:21:10;10.17;;;5.77;;
1296;SDS011;641;48.492;9.184;2023-06-10T09:23:36;9.47;;;5.20;;
1296;SDS011;641;48.492;9.184;2023-06-10T09:26:02;12.83;;;5.23;;
1296;SDS011;641;48.492;9.184;2023-06-10T09:28:33;11.23;;;5.13;;
1296;SDS011;641;48.492;9.184;2023-06-10T09:31:05;14.63;;;5.83;;
1296;SDS011;641;48.492;9.184;2023-06-10T09:33:32;10.20;;;5.67;;
1296;SDS011;641;48.492;9.184;2023-06-10T09:36:01;10.43;;;4.90;;
1296;SDS011;641;48.492;9.184;2023-06-10T09:38:31;9.33;;;4.40;;
1296;SDS011;641;48.492;9.184;2023-06-10T09:40:58;10.57;;;4.33;;
1296;SDS011;641;48.492;9.184;2023-06-10T09:43:38;9.87;;;3.90;;
1296;SDS011;641;48.492;9.184;2023-06-10T09:46:05;9.53;;;4.47;;
1296;SDS011;641;48.492;9.184;2023-06-10T09:48:34;9.67;;;4.60;;
1296;SDS011;641;48.492;9.184;2023-06-10T09:51:00;8.70;;;3.90;;
1296;SDS011;641;48.492;9.184;2023-06-10T09:53:26;9.30;;;4.27;;
1296;SDS011;641;48.492;9.184;2023-06-10T09:55:52;8.63;;;3.80;;
1296;SDS011;641;48.492;9.184;2023-06-10T09:58:18;8.40;;;3.97;;
1296;SDS011;641;48.492;9.184;2023-06-10T10:00:59;8.63;;;3.97;;
1296;SDS011;641;48.492;9.184;2023-06-10T10:03:24;8.83;;;4.50;;
1296;SDS011;641;48.492;9.184;2023-06-10T10:05:54;8.33;;;3.73;;
1296;SDS011;641;48.492;9.184;2023-06-10T10:08:24;8.50;;;4.07;;
1296;SDS011;641;48.492;9.184;2023-06-10T10:10:50;11.27;;;4.00;;
1296;SDS011;641;48.492;9.184;2023-06-10T10:13:15;11.50;;;4.27;;
1296;SDS011;641;48.492;9.184;2023-06-10T10:15:42;9.00;;;4.13;;
1296;SDS011;641;48.492;9.184;2023-06-10T10:18:10;8.83;;;4.20;;
1296;SDS011;641;48.492;9.184;2023-06-10T10:20:45;8.70;;;4.50;;
1296;SDS011;641;48.492;9.184;2023-06-10T10:23:14;9.53;;;4.70;;
1296;SDS011;641;48.492;9.184;2023-06-10T10:25:50;8.53;;;4.40;;
1296;SDS011;641;48.492;9.184;2023-06-10T10:28:18;8.50;;;4.10;;
1296;SDS011;641;48.492;9.184;2023-06-10T10:30:48;8.80;;;3.93;;
1296;SDS011;641;48.492;9.184;2023-06-10T10:33:16;13.30;;;4.20;;
1296;SDS011;641;48.492;9.184;2023-06-10T10:35:45;12.97;;;4.83;;
1296;SDS011;641;48.492;9.184;2023-06-10T10:38:11;8.57;;;4.40;;
1296;SDS011;641;48.492;9.184;2023-06-10T10:40:37;8.73;;;4.60;;
1296;SDS011;641;48.492;9.184;2023-06-10T10:43:04;8.70;;;4.40;;
1296;SDS011;641;48.492;9.184;2023-06-10T10:45:30;9.47;;;4.87;;
1296;SDS011;641;48.492;9.184;2023-06-10T10:47:58;8.60;;;4.43;;
1296;SDS011;641;48.492;9.184;2023-06-10T10:50:35;9.80;;;4.13;;
1296;SDS011;641;48.492;9.184;2023-06-10T10:53:01;9.83;;;4.40;;
1296;SDS011;641;48.492;9.184;2023-06-10T10:55:28;9.50;;;4.67;;
1296;SDS011;641;48.492;9.184;2023-06-10T11:00:24;9.07;;;4.70;;
1296;SDS011;641;48.492;9.184;2023-06-10T11:05:41;9.10;;;4.60;;
1296;SDS011;641;48.492;9.184;2023-06-10T11:08:09;8.97;;;4.43;;
1296;SDS011;641;48.492;9.184;2023-06-10T11:10:40;12.10;;;4.63;;
1296;SDS011;641;48.492;9.184;2023-06-10T11:13:15;9.33;;;5.27;;
1296;SDS011;641;48.492;9.184;2023-06-10T11:15:44;11.07;;;4.17;;
1296;SDS011;641;48.492;9.184;2023-06-10T11:18:12;8.90;;;4.70;;
1296;SDS011;641;48.492;9.184;2023-06-10T11:31:21;11.37;;;4.43;;
1296;SDS011;641;48.492;9.184;2023-06-10T11:33:49;10.73;;;4.70;;
1296;SDS011;641;48.492;9.184;2023-06-10T11:36:38;9.40;;;4.80;;
1296;SDS011;641;48.492;9.184;2023-06-10T11:39:05;8.60;;;4.60;;
1296;SDS011;641;48.492;9.184;2023-06-10T11:41:32;9.17;;;4.70;;
1296;SDS011;641;48.492;9.184;2023-06-10T11:44:03;10.83;;;5.23;;
1296;SDS011;641;48.492;9.184;2023-06-10T11:46:32;10.00;;;4.03;;
1296;SDS011;641;48.492;9.184;2023-06-10T11:48:58;10.10;;;4.20;;
1296;SDS011;641;48.492;9.184;2023-06-10T11:51:25;9.70;;;4.70;;
1296;SDS011;641;48.492;9.184;2023-06-10T11:53:52;9.50;;;4.70;;
1296;SDS011;641;48.492;9.184;2023-06-10T11:56:25;9.80;;;4.50;;
1296;SDS011;641;48.492;9.184;2023-06-10T11:58:56;10.10;;;4.77;;
1296;SDS011;641;48.492;9.184;2023-06-10T12:01:22;8.97;;;4.60;;
1296;SDS011;641;48.492;9.184;2023-06-10T12:04:00;9.90;;;4.77;;
1296;SDS011;641;48.492;9.184;2023-06-10T12:06:28;8.90;;;4.60;;
1296;SDS011;641;48.492;9.184;2023-06-10T12:09:25;9.60;;;4.23;;
1296;SDS011;641;48.492;9.184;2023-06-10T12:11:54;10.57;;;4.90;;
1296;SDS011;641;48.492;9.184;2023-06-10T12:17:15;9.93;;;5.13;;
1296;SDS011;641;48.492;9.184;2023-06-10T12:19:41;8.80;;;4.23;;
1296;SDS011;641;48.492;9.184;2023-06-10T12:22:06;9.00;;;4.83;;
1296;SDS011;641;48.492;9.184;2023-06-10T12:24:32;9.30;;;5.17;;
1296;SDS011;641;48.492;9.184;2023-06-10T12:26:57;10.90;;;4.53;;
1296;SDS011;641;48.492;9.184;2023-06-10T12:29:24;9.10;;;4.50;;
1296;SDS011;641;48.492;9.184;2023-06-10T12:34:36;29.13;;;15.40;;
1296;SDS011;641;48.492;9.184;2023-06-10T12:37:04;9.17;;;4.60;;
1296;SDS011;641;48.492;9.184;2023-06-10T12:39:40;9.70;;;4.27;;
1296;SDS011;641;48.492;9.184;2023-06-10T12:42:06;10.07;;;5.47;;
1296;SDS011;641;48.492;9.184;2023-06-10T12:44:35;8.80;;;4.20;;
1296;SDS011;641;48.492;9.184;2023-06-10T12:47:09;9.00;;;4.33;;
1296;SDS011;641;48.492;9.184;2023-06-10T12:49:37;9.27;;;4.43;;
1296;SDS011;641;48.492;9.184;2023-06-10T12:52:03;9.60;;;4.73;;
1296;SDS011;641;48.492;9.184;2023-06-10T12:54:29;9.47;;;4.73;;
1296;SDS011;641;48.492;9.184;2023-06-10T12:56:55;10.10;;;4.50;;
1296;SDS011;641;48.492;9.184;2023-06-10T12:59:21;9.97;;;3.87;;
1296;SDS011;641;48.492;9.184;2023-06-10T13:01:50;9.00;;;4.10;;
1296;SDS011;641;48.492;9.184;2023-06-10T13:04:19;9.10;;;4.20;;
1296;SDS011;641;48.492;9.184;2023-06-10T13:06:46;10.10;;;4.17;;
1296;SDS011;641;48.492;9.184;2023-06-10T13:09:12;9.60;;;4.70;;
1296;SDS011;641;48.492;9.184;2023-06-10T13:11:38;9.30;;;4.70;;
1296;SDS011;641;48.492;9.184;2023-06-10T13:14:05;8.53;;;3.80;;
1296;SDS011;641;48.492;9.184;2023-06-10T13:16:31;8.73;;;4.53;;
1296;SDS011;641;48.492;9.184;2023-06-10T13:18:57;9.30;;;3.60;;
1296;SDS011;641;48.492;9.184;2023-06-10T13:21:23;8.70;;;4.30;;
1296;SDS011;641;48.492;9.184;2023-06-10T13:23:50;10.13;;;4.20;;
1296;SDS011;641;48.492;9.184;2023-06-10T13:26:16;9.63;;;4.17;;
1296;SDS011;641;48.492;9.184;2023-06-10T13:28:44;9.07;;;3.67;;
1296;SDS011;641;48.492;9.184;2023-06-10T13:31:10;9.83;;;4.07;;
1296;SDS011;641;48.492;9.184;2023-06-10T13:33:36;11.13;;;4.23;;
1296;SDS011;641;48.492;9.184;2023-06-10T13:36:02;9.50;;;4.50;;
1296;SDS011;641;48.492;9.184;2023-06-10T13:38:27;8.50;;;4.00;;
1296;SDS011;641;48.492;9.184;2023-06-10T13:40:53;8.40;;;4.00;;
1296;SDS011;641;48.492;9.184;2023-06-10T13:43:18;10.20;;;4.70;;
1296;SDS011;641;48.492;9.184;2023-06-10T13:45:44;8.57;;;4.17;;
1296;SDS011;641;48.492;9.184;2023-06-10T13:48:10;8.40;;;4.00;;
1296;SDS011;641;48.492;9.184;2023-06-10T13:50:37;9.60;;;4.23;;
1296;SDS011;641;48.492;9.184;2023-06-10T13:53:03;8.87;;;4.47;;
1296;SDS011;641;48.492;9.184;2023-06-10T13:55:28;8.90;;;4.30;;
1296;SDS011;641;48.492;9.184;2023-06-10T13:57:54;8.70;;;3.83;;
1296;SDS011;641;48.492;9.184;2023-06-10T14:00:20;9.03;;;3.93;;
1296;SDS011;641;48.492;9.184;2023-06-10T14:02:46;11.17;;;4.80;;
1296;SDS011;641;48.492;9.184;2023-06-10T14:05:11;10.87;;;4.23;;
1296;SDS011;641;48.492;9.184;2023-06-10T14:07:37;11.00;;;3.67;;
1296;SDS011;641;48.492;9.184;2023-06-10T14:10:03;9.20;;;4.40;;
1296;SDS011;641;48.492;9.184;2023-06-10T14:12:29;9.33;;;4.10;;
1296;SDS011;641;48.492;9.184;2023-06-10T14:14:54;8.67;;;4.03;;
1296;SDS011;641;48.492;9.184;2023-06-10T14:17:20;8.77;;;4.03;;
1296;SDS011;641;48.492;9.184;2023-06-10T14:19:45;9.40;;;4.40;;
1296;SDS011;641;48.492;9.184;2023-06-10T14:22:11;8.60;;;4.20;;
1296;SDS011;641;48.492;9.184;2023-06-10T14:24:37;9.10;;;4.13;;
1296;SDS011;641;48.492;9.184;2023-06-10T14:27:03;9.10;;;3.87;;
1296;SDS011;641;48.492;9.184;2023-06-10T14:29:29;8.90;;;4.03;;
1296;SDS011;641;48.492;9.184;2023-06-10T14:31:56;9.83;;;4.40;;
1296;SDS011;641;48.492;9.184;2023-06-10T14:34:21;8.00;;;3.40;;
1296;SDS011;641;48.492;9.184;2023-06-10T14:36:48;8.60;;;3.97;;
1296;SDS011;641;48.492;9.184;2023-06-10T14:39:14;8.50;;;3.90;;
1296;SDS011;641;48.492;9.184;2023-06-10T14:41:39;8.50;;;3.70;;
1296;SDS011;641;48.492;9.184;2023-06-10T14:44:05;14.33;;;3.67;;
1296;SDS011;641;48.492;9.184;2023-06-10T14:46:30;9.87;;;3.70;;
1296;SDS011;641;48.492;9.184;2023-06-10T14:48:56;8.60;;;3.30;;
1296;SDS011;641;48.492;9.184;2023-06-10T14:51:24;10.10;;;3.83;;
1296;SDS011;641;48.492;9.184;2023-06-10T14:53:49;8.87;;;3.93;;
1296;SDS011;641;48.492;9.184;2023-06-10T14:56:15;22.90;;;4.73;;
1296;SDS011;641;48.492;9.184;2023-06-10T14:58:41;10.80;;;4.23;;
1296;SDS011;641;48.492;9.184;2023-06-10T15:01:06;9.27;;;3.90;;
1296;SDS011;641;48.492;9.184;2023-06-10T15:03:32;8.57;;;4.07;;
1296;SDS011;641;48.492;9.184;2023-06-10T15:05:57;9.50;;;4.33;;
1296;SDS011;641;48.492;9.184;2023-06-10T15:08:23;10.13;;;4.40;;
1296;SDS011;641;48.492;9.184;2023-06-10T15:10:49;9.70;;;4.30;;
1296;SDS011;641;48.492;9.184;2023-06-10T15:13:14;8.50;;;3.90;;
1296;SDS011;641;48.492;9.184;2023-06-10T15:15:40;8.93;;;4.40;;
1296;SDS011;641;48.492;9.184;2023-06-10T15:18:05;9.87;;;4.47;;
1296;SDS011;641;48.492;9.184;2023-06-10T15:20:31;10.77;;;3.97;;
1296;SDS011;641;48.492;9.184;2023-06-10T15:22:56;9.47;;;3.90;;
1296;SDS011;641;48.492;9.184;2023-06-10T15:25:22;9.73;;;3.80;;
1296;SDS011;641;48.492;9.184;2023-06-10T15:27:48;12.13;;;4.50;;
1296;SDS011;641;48.492;9.184;2023-06-10T15:30:13;8.50;;;3.87;;
1296;SDS011;641;48.492;9.184;2023-06-10T15:32:39;10.10;;;4.57;;
1296;SDS011;641;48.492;9.184;2023-06-10T15:35:05;9.73;;;5.10;;
1296;SDS011;641;48.492;9.184;2023-06-10T15:37:30;11.60;;;5.93;;
1296;SDS011;641;48.492;9.184;2023-06-10T15:39:56;9.20;;;4.80;;